M/V Brothers Way — ERZX — position and weather

sailwx.info

Track history (hours):
 
Tides and Currents Weather Stations Pressure Air Temp Water Temp Dewpoint Dewpoint Depression Visibility Wind Speed Wind Dir Waves Ship Positions

M/V Brothers Way

Last reported at 2018-Jan-10 11:29 UTC. Time now 2018-Jan-22 22:20 UTC.
Position N 36°42' E 027°20'.
Warning: this ship's position is 12 days out of date.

Length 105 m; draft 6.7 m.

Type: Cargo ship. MMSI: 214182624.

Date/timePositionNaut miles runAvg speedWind from/ knotsBaromVisibWave heightAir tempDewpointWater temp
2018-Jan-10 11:29N 36°42' E 027°20'14 6.2
2018-Jan-10 09:18N 36°56' E 027°19'2 6.9
2018-Jan-10 08:59N 36°56' E 027°17'18 7.0
2018-Jan-10 06:21N 37°10' E 027°02'3 8.1
2018-Jan-10 05:59N 37°13' E 026°60'3 7.0
2018-Jan-10 05:30N 37°15' E 026°58'4 7.6
2018-Jan-10 05:00N 37°19' E 026°55'4 7.5
2018-Jan-10 04:30N 37°22' E 026°53'4 7.3
2018-Jan-10 03:59N 37°25' E 026°50'4 7.6
2018-Jan-10 03:29N 37°28' E 026°47'3 7.2
2018-Jan-10 03:00N 37°30' E 026°44'4 7.2
2018-Jan-10 02:30N 37°33' E 026°41'4 7.3
2018-Jan-10 01:58N 37°36' E 026°38'4 7.3
2018-Jan-10 01:26N 37°40' E 026°35'3 7.1
2018-Jan-10 01:00N 37°42' E 026°33'6 7.5
2018-Jan-10 00:09N 37°48' E 026°30'1 7.1
2018-Jan-10 00:00N 37°49' E 026°29'4 7.1
2018-Jan-09 23:30N 37°52' E 026°27'4 7.4
2018-Jan-09 22:58N 37°56' E 026°25'4 7.8
2018-Jan-09 22:30N 37°59' E 026°23'4 8.1
2018-Jan-09 22:00N 38°03' E 026°21'4 7.8
2018-Jan-09 21:30N 38°06' E 026°19'60 7.0
2018-Jan-09 12:56N 39°03' E 025°53'  
2018-Jan-07 05:37N 43°11' E 028°50'3 6.7
2018-Jan-07 05:12N 43°13' E 028°49'3 6.6
2018-Jan-07 04:41N 43°17' E 028°49'1 6.5
2018-Jan-07 04:30N 43°18' E 028°49'8 6.2
2018-Jan-07 03:09N 43°26' E 028°48'2 6.1
2018-Jan-07 02:54N 43°28' E 028°48'2 6.1
2018-Jan-07 02:30N 43°30' E 028°47'5 6.2
2018-Jan-07 01:42N 43°35' E 028°47'1 6.3
2018-Jan-07 01:28N 43°37' E 028°46'6 6.3
2018-Jan-07 00:30N 43°43' E 028°46'3 6.3
2018-Jan-07 00:00N 43°46' E 028°45'3 6.2
2018-Jan-06 23:30N 43°49' E 028°45'3 6.3
2018-Jan-06 23:00N 43°52' E 028°44'3 6.5
2018-Jan-06 22:30N 43°55' E 028°44'3 6.8
2018-Jan-06 22:00N 43°59' E 028°43'3 6.8
2018-Jan-06 21:30N 44°02' E 028°43'3 6.6
2018-Jan-06 21:00N 44°05' E 028°42'3 6.8
2018-Jan-06 20:30N 44°08' E 028°40'1 2.1
2018-Jan-06 20:00N 44°09' E 028°39'0 0.0
2018-Jan-06 19:30N 44°09' E 028°39'0 0.0
2018-Jan-06 18:57N 44°09' E 028°39'0 0.0
2018-Jan-06 18:30N 44°09' E 028°39'0 0.0
2018-Jan-06 18:00N 44°09' E 028°39'0 0.0
2018-Jan-06 17:30N 44°09' E 028°39'0 0.0
2018-Jan-06 17:00N 44°09' E 028°39'0 0.0
2018-Jan-06 16:30N 44°09' E 028°39'0 0.0
2018-Jan-06 16:00N 44°09' E 028°39'0 0.0
2018-Jan-06 15:30N 44°09' E 028°39'0 0.0
2018-Jan-06 15:00N 44°09' E 028°39'0 0.0
2018-Jan-06 14:30N 44°09' E 028°39'0 0.0
2018-Jan-06 14:00N 44°09' E 028°39'0 0.0
2018-Jan-06 13:30N 44°09' E 028°39'0 0.0
2018-Jan-06 13:00N 44°09' E 028°39'0 0.0
2018-Jan-06 12:30N 44°09' E 028°39'0 0.0
2018-Jan-06 12:00N 44°09' E 028°39'0 0.0
2018-Jan-06 11:30N 44°09' E 028°39'0 0.0
2018-Jan-06 11:00N 44°09' E 028°39'0 0.0
2018-Jan-06 10:30N 44°09' E 028°39'0 0.0
2018-Jan-06 10:00N 44°09' E 028°39'0 0.0
2018-Jan-06 09:30N 44°09' E 028°39'0 0.0
2018-Jan-06 09:00N 44°09' E 028°39'0 0.0
2018-Jan-06 08:30N 44°09' E 028°39'0 0.0
2018-Jan-06 08:00N 44°09' E 028°39'0 0.0
2018-Jan-06 07:30N 44°09' E 028°39'0 0.0
2018-Jan-06 06:59N 44°09' E 028°39'0 0.0
2018-Jan-06 06:29N 44°09' E 028°39'0 0.0
2018-Jan-06 05:59N 44°09' E 028°39'0 0.0
2018-Jan-06 05:29N 44°09' E 028°39'0 0.0
2018-Jan-06 04:59N 44°09' E 028°39'0 0.0
2018-Jan-06 04:29N 44°09' E 028°39'0 0.0
2018-Jan-06 03:59N 44°09' E 028°39'0 0.0
2018-Jan-06 03:29N 44°09' E 028°39'0 0.0
2018-Jan-06 02:59N 44°09' E 028°39'0 0.0
2018-Jan-06 02:29N 44°09' E 028°39'0 0.0
2018-Jan-06 01:59N 44°09' E 028°39'0 0.0
2018-Jan-06 01:29N 44°09' E 028°39'0 0.0
2018-Jan-06 00:59N 44°09' E 028°39'0 0.0
2018-Jan-06 00:29N 44°09' E 028°39'0 0.0
2018-Jan-05 23:53N 44°09' E 028°39'0 0.0
2018-Jan-05 23:26N 44°09' E 028°39'0 0.0
2018-Jan-05 22:59N 44°09' E 028°39'0 0.0
2018-Jan-05 22:29N 44°09' E 028°39'0 0.0
2018-Jan-05 21:59N 44°09' E 028°39'0 0.0
2018-Jan-05 21:29N 44°09' E 028°39'0 0.0
2018-Jan-05 20:59N 44°09' E 028°39'0 0.0
2018-Jan-05 20:29N 44°09' E 028°39'0 0.0
2018-Jan-05 19:59N 44°09' E 028°39'0 0.0
2018-Jan-05 19:29N 44°09' E 028°39'0 0.0
2018-Jan-05 18:59N 44°09' E 028°39'0 0.0
2018-Jan-05 18:26N 44°09' E 028°39'0 0.0
2018-Jan-05 17:59N 44°09' E 028°39'0 0.0
2018-Jan-05 17:29N 44°09' E 028°39'0 0.0
2018-Jan-05 16:59N 44°09' E 028°39'0 0.0
2018-Jan-05 16:29N 44°09' E 028°39'0 0.0
2018-Jan-05 15:59N 44°09' E 028°39'0 0.0
2018-Jan-05 15:29N 44°09' E 028°39'0 0.0
2018-Jan-05 14:56N 44°09' E 028°39'0 0.0
2018-Jan-05 14:29N 44°09' E 028°39'0 0.0
2018-Jan-05 13:59N 44°09' E 028°39'0 0.0
2018-Jan-05 13:29N 44°09' E 028°39'0 0.0
2018-Jan-05 12:59N 44°09' E 028°39'0 0.0
2018-Jan-05 12:29N 44°09' E 028°39'0 0.0
2018-Jan-05 11:59N 44°09' E 028°39'0 0.0
2018-Jan-05 11:29N 44°09' E 028°39'0 0.0
2018-Jan-05 10:59N 44°09' E 028°39'0 0.0
2018-Jan-05 10:26N 44°09' E 028°39'0 0.0
2018-Jan-05 09:59N 44°09' E 028°39'0 0.0
2018-Jan-05 09:29N 44°09' E 028°39'0 0.0
2018-Jan-05 09:00N 44°09' E 028°39'0 0.0
2018-Jan-05 08:30N 44°09' E 028°39'0 0.0
2018-Jan-05 08:00N 44°09' E 028°39'0 0.0
2018-Jan-05 07:28N 44°09' E 028°39'0 0.0
2018-Jan-05 06:58N 44°09' E 028°39'0 0.0
2018-Jan-05 06:28N 44°09' E 028°39'0 0.0
2018-Jan-05 05:58N 44°09' E 028°39'0 0.0
2018-Jan-05 05:28N 44°09' E 028°39'0 0.0
2018-Jan-05 04:58N 44°09' E 028°39'0 0.0
2018-Jan-05 04:28N 44°09' E 028°39'0 0.0
2018-Jan-05 03:58N 44°09' E 028°39'0 0.0
2018-Jan-05 03:28N 44°09' E 028°39'0 0.0
2018-Jan-05 02:58N 44°09' E 028°39'0 0.0
2018-Jan-05 02:28N 44°09' E 028°39'0 0.0
2018-Jan-05 01:58N 44°09' E 028°39'0 0.0
2018-Jan-05 01:28N 44°09' E 028°39'0 0.0
2018-Jan-05 00:58N 44°09' E 028°39'0 0.0
2018-Jan-05 00:28N 44°09' E 028°39'0 0.0
2018-Jan-04 23:58N 44°09' E 028°39'0 0.0
2018-Jan-04 23:28N 44°09' E 028°39'0 0.0
2018-Jan-04 22:58N 44°09' E 028°39'0 0.0
2018-Jan-04 22:28N 44°09' E 028°39'0 0.0
2018-Jan-04 21:58N 44°09' E 028°39'0 0.0
2018-Jan-04 21:28N 44°09' E 028°39'0 0.0
2018-Jan-04 20:58N 44°09' E 028°39'0 0.0
2018-Jan-04 20:28N 44°09' E 028°39'0 0.0
2018-Jan-04 19:58N 44°09' E 028°39'0 0.0
2018-Jan-04 19:28N 44°09' E 028°39'0 0.0
2018-Jan-04 18:58N 44°09' E 028°39'0 0.0
2018-Jan-04 18:28N 44°09' E 028°39'0 0.0
2018-Jan-04 17:58N 44°09' E 028°39'0 0.0
2018-Jan-04 17:28N 44°09' E 028°39'0 0.0
2018-Jan-04 16:58N 44°09' E 028°39'0 0.0
2018-Jan-04 16:28N 44°09' E 028°39'0 0.0
2018-Jan-04 15:58N 44°09' E 028°39'0 0.0
2018-Jan-04 15:28N 44°09' E 028°39'0 0.0
2018-Jan-04 14:58N 44°09' E 028°39'0 0.0
2018-Jan-04 14:28N 44°09' E 028°39'0 0.0
2018-Jan-04 13:58N 44°09' E 028°39'0 0.0
2018-Jan-04 13:28N 44°09' E 028°39'0 0.0
2018-Jan-04 12:58N 44°09' E 028°39'0 0.0
2018-Jan-04 12:28N 44°09' E 028°39'0 0.0
2018-Jan-04 11:58N 44°09' E 028°39'0 0.0
2018-Jan-04 11:25N 44°09' E 028°39'0 0.0
2018-Jan-04 10:58N 44°09' E 028°39'0 0.0
2018-Jan-04 10:28N 44°09' E 028°39'0 0.0
2018-Jan-04 09:58N 44°09' E 028°39'0 0.0
2018-Jan-04 09:28N 44°09' E 028°39'0 0.0
2018-Jan-04 08:58N 44°09' E 028°39'0 0.0
2018-Jan-04 08:28N 44°09' E 028°39'0 0.0
2018-Jan-04 07:58N 44°09' E 028°39'0 0.0
2018-Jan-04 07:28N 44°09' E 028°39'0 0.0
2018-Jan-04 06:58N 44°09' E 028°39'0 0.0
2018-Jan-04 06:28N 44°09' E 028°39'0 0.0
2018-Jan-04 05:58N 44°09' E 028°39'0 0.0
2018-Jan-04 05:28N 44°09' E 028°39'0 0.0
2018-Jan-04 04:58N 44°09' E 028°39'0 0.0
2018-Jan-04 04:28N 44°09' E 028°39'0 0.0
2018-Jan-04 03:58N 44°09' E 028°39'0 0.0
2018-Jan-04 03:28N 44°09' E 028°39'0 0.0
2018-Jan-04 02:58N 44°09' E 028°39'0 0.0
2018-Jan-04 02:28N 44°09' E 028°39'0 0.0
2018-Jan-04 01:55N 44°09' E 028°39'0 0.0
2018-Jan-04 01:28N 44°09' E 028°39'0 0.0
2018-Jan-04 00:58N 44°09' E 028°39'0 0.0
2018-Jan-04 00:28N 44°09' E 028°39'0 0.0
2018-Jan-03 23:58N 44°09' E 028°39'0 0.0
2018-Jan-03 23:25N 44°09' E 028°39'0 0.0
2018-Jan-03 22:58N 44°09' E 028°39'0 0.0
2018-Jan-03 22:28N 44°09' E 028°39'0 0.0
2018-Jan-03 21:58N 44°09' E 028°39'0 0.0
2018-Jan-03 21:28N 44°09' E 028°39'0 0.0
2018-Jan-03 21:01N 44°09' E 028°39'0 0.0
2018-Jan-03 20:31N 44°09' E 028°39'0 0.0
2018-Jan-03 20:01N 44°09' E 028°39'0 0.0
2018-Jan-03 19:31N 44°09' E 028°39'0 0.0
2018-Jan-03 19:00N 44°09' E 028°39'0 0.0
2018-Jan-03 18:30N 44°09' E 028°39'0 0.0
2018-Jan-03 18:00N 44°09' E 028°39'0 0.0
2018-Jan-03 17:30N 44°09' E 028°39'0 0.0
2018-Jan-03 16:57N 44°09' E 028°39'0 0.0
2018-Jan-03 16:30N 44°09' E 028°39'0 0.0
2018-Jan-03 16:00N 44°09' E 028°39'0 0.0
2018-Jan-03 15:30N 44°09' E 028°39'0 0.0
2018-Jan-03 15:00N 44°09' E 028°39'0 0.0
2018-Jan-03 14:30N 44°09' E 028°39'0 0.0
2018-Jan-03 14:00N 44°09' E 028°39'0 0.0
2018-Jan-03 13:30N 44°09' E 028°39'0 0.0
2018-Jan-03 13:00N 44°09' E 028°39'0 0.0
2018-Jan-03 12:30N 44°09' E 028°39'0 0.0
2018-Jan-03 11:54N 44°09' E 028°39'0 0.0
2018-Jan-03 11:30N 44°09' E 028°39'0 0.0
2018-Jan-03 10:57N 44°09' E 028°39'0 0.0
2018-Jan-03 10:30N 44°09' E 028°39'0 0.0
2018-Jan-03 10:00N 44°09' E 028°39'0 0.0
2018-Jan-03 09:30N 44°09' E 028°39'0 0.0
2018-Jan-03 09:00N 44°09' E 028°39'0 0.0
2018-Jan-03 08:27N 44°09' E 028°39'0 0.0
2018-Jan-03 08:00N 44°09' E 028°39'0 0.0
2018-Jan-03 07:30N 44°09' E 028°39'0 0.0
2018-Jan-03 07:00N 44°09' E 028°39'0 0.0
2018-Jan-03 06:30N 44°09' E 028°39'0 0.0
2018-Jan-03 06:00N 44°09' E 028°39'0 0.0
2018-Jan-03 05:30N 44°09' E 028°39'0 0.0
2018-Jan-03 05:00N 44°09' E 028°39'0 0.0
2018-Jan-03 04:30N 44°09' E 028°39'0 0.0
2018-Jan-03 04:00N 44°09' E 028°39'0 0.0
2018-Jan-03 03:30N 44°09' E 028°39'0 0.0
2018-Jan-03 03:00N 44°09' E 028°39'0 0.0
2018-Jan-03 02:30N 44°09' E 028°39'0 0.0
2018-Jan-03 01:57N 44°09' E 028°39'0 0.0
2018-Jan-03 01:27N 44°09' E 028°39'0 0.0
2018-Jan-03 01:00N 44°09' E 028°39'0 0.0
2018-Jan-03 00:30N 44°09' E 028°39'0 0.0
2018-Jan-03 00:00N 44°09' E 028°39'0 0.0
2018-Jan-02 23:30N 44°09' E 028°39'0 0.0
2018-Jan-02 22:57N 44°09' E 028°39'0 0.0
2018-Jan-02 22:30N 44°09' E 028°39'0 0.0
2018-Jan-02 22:00N 44°09' E 028°39'0 0.0
2018-Jan-02 21:30N 44°09' E 028°39'0 0.0
2018-Jan-02 21:00N 44°09' E 028°39'0 0.0
2018-Jan-02 20:30N 44°09' E 028°39'0 0.0
2018-Jan-02 20:00N 44°09' E 028°39'0 0.0
2018-Jan-02 19:30N 44°09' E 028°39'0 0.0
2018-Jan-02 18:54N 44°09' E 028°39'0 0.0
2018-Jan-02 18:30N 44°09' E 028°39'0 0.0
2018-Jan-02 18:00N 44°09' E 028°39'0 0.0
2018-Jan-02 17:30N 44°09' E 028°39'0 0.0
2018-Jan-02 16:56N 44°09' E 028°39'0 0.0
2018-Jan-02 16:29N 44°09' E 028°39'0 0.0
2018-Jan-02 15:59N 44°09' E 028°39'0 0.0
2018-Jan-02 15:29N 44°09' E 028°39'0 0.0
2018-Jan-02 14:59N 44°09' E 028°39'0 0.0
2018-Jan-02 14:29N 44°09' E 028°39'0 0.0
2018-Jan-02 13:59N 44°09' E 028°39'0 0.0
2018-Jan-02 13:29N 44°09' E 028°39'0 0.0
2018-Jan-02 12:59N 44°09' E 028°39'0 0.0
2018-Jan-02 12:26N 44°09' E 028°39'0 0.0
2018-Jan-02 11:59N 44°09' E 028°39'0 0.0
2018-Jan-02 11:29N 44°09' E 028°39'0 0.0
2018-Jan-02 10:59N 44°09' E 028°39'0 0.0
2018-Jan-02 10:29N 44°09' E 028°39'0 0.0
2018-Jan-02 09:59N 44°09' E 028°39'0 0.0
2018-Jan-02 09:29N 44°09' E 028°39'0 0.0
2018-Jan-02 08:29N 44°09' E 028°39'0 0.0
2018-Jan-02 07:59N 44°09' E 028°39'0 0.0
2018-Jan-02 07:29N 44°09' E 028°39'0 0.0
2018-Jan-02 06:53N 44°09' E 028°39'0 0.0
2018-Jan-02 06:29N 44°09' E 028°39'0 0.0
2018-Jan-02 05:59N 44°09' E 028°39'0 0.0
2018-Jan-02 05:26N 44°09' E 028°39'0 0.0
2018-Jan-02 04:29N 44°09' E 028°39'0 0.0
2018-Jan-02 03:59N 44°09' E 028°39'0 0.0
2018-Jan-02 03:26N 44°09' E 028°39'0 0.0
2018-Jan-02 02:59N 44°09' E 028°39'0 0.0
2018-Jan-02 02:29N 44°09' E 028°39'0 0.0
2018-Jan-02 01:59N 44°09' E 028°39'0 0.0
2018-Jan-02 01:29N 44°09' E 028°39'0 0.0
2018-Jan-02 00:59N 44°09' E 028°39'0 0.0
2018-Jan-02 00:29N 44°09' E 028°39'0 0.0
2018-Jan-01 23:59N 44°09' E 028°39'0 0.0
2018-Jan-01 23:29N 44°09' E 028°39'0 0.0
2018-Jan-01 22:59N 44°09' E 028°39'0 0.0
2018-Jan-01 22:29N 44°09' E 028°39'0 0.0
2018-Jan-01 21:59N 44°09' E 028°39'0 0.0
2018-Jan-01 21:29N 44°09' E 028°39'0 0.0
2018-Jan-01 20:59N 44°09' E 028°39'0 0.0
2018-Jan-01 20:29N 44°09' E 028°39'0 0.0
2018-Jan-01 19:59N 44°09' E 028°39'0 0.0
2018-Jan-01 19:29N 44°09' E 028°39'0 0.0
2018-Jan-01 18:59N 44°09' E 028°39'0 0.0
2018-Jan-01 18:29N 44°09' E 028°39'0 0.0
2018-Jan-01 17:59N 44°09' E 028°39'0 0.0
2018-Jan-01 17:29N 44°09' E 028°39'0 0.0
2018-Jan-01 14:59N 44°09' E 028°39'0 0.0
2018-Jan-01 14:29N 44°09' E 028°39'0 0.0
2018-Jan-01 13:59N 44°09' E 028°39'0 0.0
2018-Jan-01 13:26N 44°09' E 028°39'0 0.0
2018-Jan-01 12:59N 44°09' E 028°39'0 0.0
2018-Jan-01 11:59N 44°09' E 028°39'0 0.0
2018-Jan-01 11:29N 44°09' E 028°39'0 0.0
2018-Jan-01 10:56N 44°09' E 028°39'0 0.0
2018-Jan-01 10:29N 44°09' E 028°39'0 0.0
2018-Jan-01 09:59N 44°09' E 028°39'0 0.0
2018-Jan-01 09:29N 44°09' E 028°39'0 0.0
2018-Jan-01 08:29N 44°09' E 028°39'0 0.0
2018-Jan-01 07:59N 44°09' E 028°39'0 0.0
2018-Jan-01 07:23N 44°09' E 028°39'0 0.0
2018-Jan-01 06:59N 44°09' E 028°39'0 0.0
2018-Jan-01 05:59N 44°09' E 028°39'0 0.0
2018-Jan-01 05:29N 44°09' E 028°39'0 0.0
2018-Jan-01 04:59N 44°09' E 028°39'0 0.0
2018-Jan-01 03:59N 44°09' E 028°39'0 0.0
2018-Jan-01 03:29N 44°09' E 028°39'0 0.0
2018-Jan-01 02:56N 44°09' E 028°39'0 0.0
2018-Jan-01 02:28N 44°09' E 028°39'0 0.0
2018-Jan-01 01:58N 44°09' E 028°39'0 0.0
2018-Jan-01 01:28N 44°09' E 028°39'0 0.0
2018-Jan-01 00:25N 44°09' E 028°39'0 0.0
2017-Dec-31 20:55N 44°09' E 028°39'0 0.0
2017-Dec-31 20:28N 44°09' E 028°39'0 0.0
2017-Dec-31 19:58N 44°09' E 028°39'0 0.0
2017-Dec-31 19:28N 44°09' E 028°39'0 0.0
2017-Dec-31 18:58N 44°09' E 028°39'0 0.0
2017-Dec-31 18:28N 44°09' E 028°39'0 0.0
2017-Dec-31 17:58N 44°09' E 028°39'0 0.0
2017-Dec-31 17:28N 44°09' E 028°39'0 0.0
2017-Dec-31 16:55N 44°09' E 028°39'0 0.0
2017-Dec-31 16:28N 44°09' E 028°39'0 0.0
2017-Dec-31 15:58N 44°09' E 028°39'0 0.0
2017-Dec-31 15:28N 44°09' E 028°39'0 0.0
2017-Dec-31 14:58N 44°09' E 028°39'0 0.0
2017-Dec-31 14:28N 44°09' E 028°39'0 0.0
2017-Dec-31 13:58N 44°09' E 028°39'0 0.0
2017-Dec-31 13:28N 44°09' E 028°39'0 0.0
2017-Dec-31 12:58N 44°09' E 028°39'0 0.0
2017-Dec-31 12:28N 44°09' E 028°39'0 0.0
2017-Dec-31 11:58N 44°09' E 028°39'  
Track history (hours):
 
Tides and Currents Weather Stations Pressure Air Temp Water Temp Dewpoint Dewpoint Depression Visibility Wind Speed Wind Dir Waves Ship Positions

M/V Brothers Way

Last reported at 2018-Jan-10 11:29 UTC. Time now 2018-Jan-22 22:20 UTC.
Position N 36°42' E 027°20'.
Warning: this ship's position is 12 days out of date.

Length 105 m; draft 6.7 m.

Type: Cargo ship. MMSI: 214182624.

Date/timePositionNaut miles runAvg speedWind from/ knotsBaromVisibWave heightAir tempDewpointWater temp
2018-Jan-10 11:29N 36°42' E 027°20'14 6.2
2018-Jan-10 09:18N 36°56' E 027°19'2 6.9
2018-Jan-10 08:59N 36°56' E 027°17'18 7.0
2018-Jan-10 06:21N 37°10' E 027°02'3 8.1
2018-Jan-10 05:59N 37°13' E 026°60'3 7.0
2018-Jan-10 05:30N 37°15' E 026°58'4 7.6
2018-Jan-10 05:00N 37°19' E 026°55'4 7.5
2018-Jan-10 04:30N 37°22' E 026°53'4 7.3
2018-Jan-10 03:59N 37°25' E 026°50'4 7.6
2018-Jan-10 03:29N 37°28' E 026°47'3 7.2
2018-Jan-10 03:00N 37°30' E 026°44'4 7.2
2018-Jan-10 02:30N 37°33' E 026°41'4 7.3
2018-Jan-10 01:58N 37°36' E 026°38'4 7.3
2018-Jan-10 01:26N 37°40' E 026°35'3 7.1
2018-Jan-10 01:00N 37°42' E 026°33'6 7.5
2018-Jan-10 00:09N 37°48' E 026°30'1 7.1
2018-Jan-10 00:00N 37°49' E 026°29'4 7.1
2018-Jan-09 23:30N 37°52' E 026°27'4 7.4
2018-Jan-09 22:58N 37°56' E 026°25'4 7.8
2018-Jan-09 22:30N 37°59' E 026°23'4 8.1
2018-Jan-09 22:00N 38°03' E 026°21'4 7.8
2018-Jan-09 21:30N 38°06' E 026°19'60 7.0
2018-Jan-09 12:56N 39°03' E 025°53'  
2018-Jan-07 05:37N 43°11' E 028°50'3 6.7
2018-Jan-07 05:12N 43°13' E 028°49'3 6.6
2018-Jan-07 04:41N 43°17' E 028°49'1 6.5
2018-Jan-07 04:30N 43°18' E 028°49'8 6.2
2018-Jan-07 03:09N 43°26' E 028°48'2 6.1
2018-Jan-07 02:54N 43°28' E 028°48'2 6.1
2018-Jan-07 02:30N 43°30' E 028°47'5 6.2
2018-Jan-07 01:42N 43°35' E 028°47'1 6.3
2018-Jan-07 01:28N 43°37' E 028°46'6 6.3
2018-Jan-07 00:30N 43°43' E 028°46'3 6.3
2018-Jan-07 00:00N 43°46' E 028°45'3 6.2
2018-Jan-06 23:30N 43°49' E 028°45'3 6.3
2018-Jan-06 23:00N 43°52' E 028°44'3 6.5
2018-Jan-06 22:30N 43°55' E 028°44'3 6.8
2018-Jan-06 22:00N 43°59' E 028°43'3 6.8
2018-Jan-06 21:30N 44°02' E 028°43'3 6.6
2018-Jan-06 21:00N 44°05' E 028°42'3 6.8
2018-Jan-06 20:30N 44°08' E 028°40'1 2.1
2018-Jan-06 20:00N 44°09' E 028°39'0 0.0
2018-Jan-06 19:30N 44°09' E 028°39'0 0.0
2018-Jan-06 18:57N 44°09' E 028°39'0 0.0
2018-Jan-06 18:30N 44°09' E 028°39'0 0.0
2018-Jan-06 18:00N 44°09' E 028°39'0 0.0
2018-Jan-06 17:30N 44°09' E 028°39'0 0.0
2018-Jan-06 17:00N 44°09' E 028°39'0 0.0
2018-Jan-06 16:30N 44°09' E 028°39'0 0.0
2018-Jan-06 16:00N 44°09' E 028°39'0 0.0
2018-Jan-06 15:30N 44°09' E 028°39'0 0.0
2018-Jan-06 15:00N 44°09' E 028°39'0 0.0
2018-Jan-06 14:30N 44°09' E 028°39'0 0.0
2018-Jan-06 14:00N 44°09' E 028°39'0 0.0
2018-Jan-06 13:30N 44°09' E 028°39'0 0.0
2018-Jan-06 13:00N 44°09' E 028°39'0 0.0
2018-Jan-06 12:30N 44°09' E 028°39'0 0.0
2018-Jan-06 12:00N 44°09' E 028°39'0 0.0
2018-Jan-06 11:30N 44°09' E 028°39'0 0.0
2018-Jan-06 11:00N 44°09' E 028°39'0 0.0
2018-Jan-06 10:30N 44°09' E 028°39'0 0.0
2018-Jan-06 10:00N 44°09' E 028°39'0 0.0
2018-Jan-06 09:30N 44°09' E 028°39'0 0.0
2018-Jan-06 09:00N 44°09' E 028°39'0 0.0
2018-Jan-06 08:30N 44°09' E 028°39'0 0.0
2018-Jan-06 08:00N 44°09' E 028°39'0 0.0
2018-Jan-06 07:30N 44°09' E 028°39'0 0.0
2018-Jan-06 06:59N 44°09' E 028°39'0 0.0
2018-Jan-06 06:29N 44°09' E 028°39'0 0.0
2018-Jan-06 05:59N 44°09' E 028°39'0 0.0
2018-Jan-06 05:29N 44°09' E 028°39'0 0.0
2018-Jan-06 04:59N 44°09' E 028°39'0 0.0
2018-Jan-06 04:29N 44°09' E 028°39'0 0.0
2018-Jan-06 03:59N 44°09' E 028°39'0 0.0
2018-Jan-06 03:29N 44°09' E 028°39'0 0.0
2018-Jan-06 02:59N 44°09' E 028°39'0 0.0
2018-Jan-06 02:29N 44°09' E 028°39'0 0.0
2018-Jan-06 01:59N 44°09' E 028°39'0 0.0
2018-Jan-06 01:29N 44°09' E 028°39'0 0.0
2018-Jan-06 00:59N 44°09' E 028°39'0 0.0
2018-Jan-06 00:29N 44°09' E 028°39'0 0.0
2018-Jan-05 23:53N 44°09' E 028°39'0 0.0
2018-Jan-05 23:26N 44°09' E 028°39'0 0.0
2018-Jan-05 22:59N 44°09' E 028°39'0 0.0
2018-Jan-05 22:29N 44°09' E 028°39'0 0.0
2018-Jan-05 21:59N 44°09' E 028°39'0 0.0
2018-Jan-05 21:29N 44°09' E 028°39'0 0.0
2018-Jan-05 20:59N 44°09' E 028°39'0 0.0
2018-Jan-05 20:29N 44°09' E 028°39'0 0.0
2018-Jan-05 19:59N 44°09' E 028°39'0 0.0
2018-Jan-05 19:29N 44°09' E 028°39'0 0.0
2018-Jan-05 18:59N 44°09' E 028°39'0 0.0
2018-Jan-05 18:26N 44°09' E 028°39'0 0.0
2018-Jan-05 17:59N 44°09' E 028°39'0 0.0
2018-Jan-05 17:29N 44°09' E 028°39'0 0.0
2018-Jan-05 16:59N 44°09' E 028°39'0 0.0
2018-Jan-05 16:29N 44°09' E 028°39'0 0.0
2018-Jan-05 15:59N 44°09' E 028°39'0 0.0
2018-Jan-05 15:29N 44°09' E 028°39'0 0.0
2018-Jan-05 14:56N 44°09' E 028°39'0 0.0
2018-Jan-05 14:29N 44°09' E 028°39'0 0.0
2018-Jan-05 13:59N 44°09' E 028°39'0 0.0
2018-Jan-05 13:29N 44°09' E 028°39'0 0.0
2018-Jan-05 12:59N 44°09' E 028°39'0 0.0
2018-Jan-05 12:29N 44°09' E 028°39'0 0.0
2018-Jan-05 11:59N 44°09' E 028°39'0 0.0
2018-Jan-05 11:29N 44°09' E 028°39'0 0.0
2018-Jan-05 10:59N 44°09' E 028°39'0 0.0
2018-Jan-05 10:26N 44°09' E 028°39'0 0.0
2018-Jan-05 09:59N 44°09' E 028°39'0 0.0
2018-Jan-05 09:29N 44°09' E 028°39'0 0.0
2018-Jan-05 09:00N 44°09' E 028°39'0 0.0
2018-Jan-05 08:30N 44°09' E 028°39'0 0.0
2018-Jan-05 08:00N 44°09' E 028°39'0 0.0
2018-Jan-05 07:28N 44°09' E 028°39'0 0.0
2018-Jan-05 06:58N 44°09' E 028°39'0 0.0
2018-Jan-05 06:28N 44°09' E 028°39'0 0.0
2018-Jan-05 05:58N 44°09' E 028°39'0 0.0
2018-Jan-05 05:28N 44°09' E 028°39'0 0.0
2018-Jan-05 04:58N 44°09' E 028°39'0 0.0
2018-Jan-05 04:28N 44°09' E 028°39'0 0.0
2018-Jan-05 03:58N 44°09' E 028°39'0 0.0
2018-Jan-05 03:28N 44°09' E 028°39'0 0.0
2018-Jan-05 02:58N 44°09' E 028°39'0 0.0
2018-Jan-05 02:28N 44°09' E 028°39'0 0.0
2018-Jan-05 01:58N 44°09' E 028°39'0 0.0
2018-Jan-05 01:28N 44°09' E 028°39'0 0.0
2018-Jan-05 00:58N 44°09' E 028°39'0 0.0
2018-Jan-05 00:28N 44°09' E 028°39'0 0.0
2018-Jan-04 23:58N 44°09' E 028°39'0 0.0
2018-Jan-04 23:28N 44°09' E 028°39'0 0.0
2018-Jan-04 22:58N 44°09' E 028°39'0 0.0
2018-Jan-04 22:28N 44°09' E 028°39'0 0.0
2018-Jan-04 21:58N 44°09' E 028°39'0 0.0
2018-Jan-04 21:28N 44°09' E 028°39'0 0.0
2018-Jan-04 20:58N 44°09' E 028°39'0 0.0
2018-Jan-04 20:28N 44°09' E 028°39'0 0.0
2018-Jan-04 19:58N 44°09' E 028°39'0 0.0
2018-Jan-04 19:28N 44°09' E 028°39'0 0.0
2018-Jan-04 18:58N 44°09' E 028°39'0 0.0
2018-Jan-04 18:28N 44°09' E 028°39'0 0.0
2018-Jan-04 17:58N 44°09' E 028°39'0 0.0
2018-Jan-04 17:28N 44°09' E 028°39'0 0.0
2018-Jan-04 16:58N 44°09' E 028°39'0 0.0
2018-Jan-04 16:28N 44°09' E 028°39'0 0.0
2018-Jan-04 15:58N 44°09' E 028°39'0 0.0
2018-Jan-04 15:28N 44°09' E 028°39'0 0.0
2018-Jan-04 14:58N 44°09' E 028°39'0 0.0
2018-Jan-04 14:28N 44°09' E 028°39'0 0.0
2018-Jan-04 13:58N 44°09' E 028°39'0 0.0
2018-Jan-04 13:28N 44°09' E 028°39'0 0.0
2018-Jan-04 12:58N 44°09' E 028°39'0 0.0
2018-Jan-04 12:28N 44°09' E 028°39'0 0.0
2018-Jan-04 11:58N 44°09' E 028°39'0 0.0
2018-Jan-04 11:25N 44°09' E 028°39'0 0.0
2018-Jan-04 10:58N 44°09' E 028°39'0 0.0
2018-Jan-04 10:28N 44°09' E 028°39'0 0.0
2018-Jan-04 09:58N 44°09' E 028°39'0 0.0
2018-Jan-04 09:28N 44°09' E 028°39'0 0.0
2018-Jan-04 08:58N 44°09' E 028°39'0 0.0
2018-Jan-04 08:28N 44°09' E 028°39'0 0.0
2018-Jan-04 07:58N 44°09' E 028°39'0 0.0
2018-Jan-04 07:28N 44°09' E 028°39'0 0.0
2018-Jan-04 06:58N 44°09' E 028°39'0 0.0
2018-Jan-04 06:28N 44°09' E 028°39'0 0.0
2018-Jan-04 05:58N 44°09' E 028°39'0 0.0
2018-Jan-04 05:28N 44°09' E 028°39'0 0.0
2018-Jan-04 04:58N 44°09' E 028°39'0 0.0
2018-Jan-04 04:28N 44°09' E 028°39'0 0.0
2018-Jan-04 03:58N 44°09' E 028°39'0 0.0
2018-Jan-04 03:28N 44°09' E 028°39'0 0.0
2018-Jan-04 02:58N 44°09' E 028°39'0 0.0
2018-Jan-04 02:28N 44°09' E 028°39'0 0.0
2018-Jan-04 01:55N 44°09' E 028°39'0 0.0
2018-Jan-04 01:28N 44°09' E 028°39'0 0.0
2018-Jan-04 00:58N 44°09' E 028°39'0 0.0
2018-Jan-04 00:28N 44°09' E 028°39'0 0.0
2018-Jan-03 23:58N 44°09' E 028°39'0 0.0
2018-Jan-03 23:25N 44°09' E 028°39'0 0.0
2018-Jan-03 22:58N 44°09' E 028°39'0 0.0
2018-Jan-03 22:28N 44°09' E 028°39'0 0.0
2018-Jan-03 21:58N 44°09' E 028°39'0 0.0
2018-Jan-03 21:28N 44°09' E 028°39'0 0.0
2018-Jan-03 21:01N 44°09' E 028°39'0 0.0
2018-Jan-03 20:31N 44°09' E 028°39'0 0.0
2018-Jan-03 20:01N 44°09' E 028°39'0 0.0
2018-Jan-03 19:31N 44°09' E 028°39'0 0.0
2018-Jan-03 19:00N 44°09' E 028°39'0 0.0
2018-Jan-03 18:30N 44°09' E 028°39'0 0.0
2018-Jan-03 18:00N 44°09' E 028°39'0 0.0
2018-Jan-03 17:30N 44°09' E 028°39'0 0.0
2018-Jan-03 16:57N 44°09' E 028°39'0 0.0
2018-Jan-03 16:30N 44°09' E 028°39'0 0.0
2018-Jan-03 16:00N 44°09' E 028°39'0 0.0
2018-Jan-03 15:30N 44°09' E 028°39'0 0.0
2018-Jan-03 15:00N 44°09' E 028°39'0 0.0
2018-Jan-03 14:30N 44°09' E 028°39'0 0.0
2018-Jan-03 14:00N 44°09' E 028°39'0 0.0
2018-Jan-03 13:30N 44°09' E 028°39'0 0.0
2018-Jan-03 13:00N 44°09' E 028°39'0 0.0
2018-Jan-03 12:30N 44°09' E 028°39'0 0.0
2018-Jan-03 11:54N 44°09' E 028°39'0 0.0
2018-Jan-03 11:30N 44°09' E 028°39'0 0.0
2018-Jan-03 10:57N 44°09' E 028°39'0 0.0
2018-Jan-03 10:30N 44°09' E 028°39'0 0.0
2018-Jan-03 10:00N 44°09' E 028°39'0 0.0
2018-Jan-03 09:30N 44°09' E 028°39'0 0.0
2018-Jan-03 09:00N 44°09' E 028°39'0 0.0
2018-Jan-03 08:27N 44°09' E 028°39'0 0.0
2018-Jan-03 08:00N 44°09' E 028°39'0 0.0
2018-Jan-03 07:30N 44°09' E 028°39'0 0.0
2018-Jan-03 07:00N 44°09' E 028°39'0 0.0
2018-Jan-03 06:30N 44°09' E 028°39'0 0.0
2018-Jan-03 06:00N 44°09' E 028°39'0 0.0
2018-Jan-03 05:30N 44°09' E 028°39'0 0.0
2018-Jan-03 05:00N 44°09' E 028°39'0 0.0
2018-Jan-03 04:30N 44°09' E 028°39'0 0.0
2018-Jan-03 04:00N 44°09' E 028°39'0 0.0
2018-Jan-03 03:30N 44°09' E 028°39'0 0.0
2018-Jan-03 03:00N 44°09' E 028°39'0 0.0
2018-Jan-03 02:30N 44°09' E 028°39'0 0.0
2018-Jan-03 01:57N 44°09' E 028°39'0 0.0
2018-Jan-03 01:27N 44°09' E 028°39'0 0.0
2018-Jan-03 01:00N 44°09' E 028°39'0 0.0
2018-Jan-03 00:30N 44°09' E 028°39'0 0.0
2018-Jan-03 00:00N 44°09' E 028°39'0 0.0
2018-Jan-02 23:30N 44°09' E 028°39'0 0.0
2018-Jan-02 22:57N 44°09' E 028°39'0 0.0
2018-Jan-02 22:30N 44°09' E 028°39'0 0.0
2018-Jan-02 22:00N 44°09' E 028°39'0 0.0
2018-Jan-02 21:30N 44°09' E 028°39'0 0.0
2018-Jan-02 21:00N 44°09' E 028°39'0 0.0
2018-Jan-02 20:30N 44°09' E 028°39'0 0.0
2018-Jan-02 20:00N 44°09' E 028°39'0 0.0
2018-Jan-02 19:30N 44°09' E 028°39'0 0.0
2018-Jan-02 18:54N 44°09' E 028°39'0 0.0
2018-Jan-02 18:30N 44°09' E 028°39'0 0.0
2018-Jan-02 18:00N 44°09' E 028°39'0 0.0
2018-Jan-02 17:30N 44°09' E 028°39'0 0.0
2018-Jan-02 16:56N 44°09' E 028°39'0 0.0
2018-Jan-02 16:29N 44°09' E 028°39'0 0.0
2018-Jan-02 15:59N 44°09' E 028°39'0 0.0
2018-Jan-02 15:29N 44°09' E 028°39'0 0.0
2018-Jan-02 14:59N 44°09' E 028°39'0 0.0
2018-Jan-02 14:29N 44°09' E 028°39'0 0.0
2018-Jan-02 13:59N 44°09' E 028°39'0 0.0
2018-Jan-02 13:29N 44°09' E 028°39'0 0.0
2018-Jan-02 12:59N 44°09' E 028°39'0 0.0
2018-Jan-02 12:26N 44°09' E 028°39'0 0.0
2018-Jan-02 11:59N 44°09' E 028°39'0 0.0
2018-Jan-02 11:29N 44°09' E 028°39'0 0.0
2018-Jan-02 10:59N 44°09' E 028°39'0 0.0
2018-Jan-02 10:29N 44°09' E 028°39'0 0.0
2018-Jan-02 09:59N 44°09' E 028°39'0 0.0
2018-Jan-02 09:29N 44°09' E 028°39'0 0.0
2018-Jan-02 08:29N 44°09' E 028°39'0 0.0
2018-Jan-02 07:59N 44°09' E 028°39'0 0.0
2018-Jan-02 07:29N 44°09' E 028°39'0 0.0
2018-Jan-02 06:53N 44°09' E 028°39'0 0.0
2018-Jan-02 06:29N 44°09' E 028°39'0 0.0
2018-Jan-02 05:59N 44°09' E 028°39'0 0.0
2018-Jan-02 05:26N 44°09' E 028°39'0 0.0
2018-Jan-02 04:29N 44°09' E 028°39'0 0.0
2018-Jan-02 03:59N 44°09' E 028°39'0 0.0
2018-Jan-02 03:26N 44°09' E 028°39'0 0.0
2018-Jan-02 02:59N 44°09' E 028°39'0 0.0
2018-Jan-02 02:29N 44°09' E 028°39'0 0.0
2018-Jan-02 01:59N 44°09' E 028°39'0 0.0
2018-Jan-02 01:29N 44°09' E 028°39'0 0.0
2018-Jan-02 00:59N 44°09' E 028°39'0 0.0
2018-Jan-02 00:29N 44°09' E 028°39'0 0.0
2018-Jan-01 23:59N 44°09' E 028°39'0 0.0
2018-Jan-01 23:29N 44°09' E 028°39'0 0.0
2018-Jan-01 22:59N 44°09' E 028°39'0 0.0
2018-Jan-01 22:29N 44°09' E 028°39'0 0.0
2018-Jan-01 21:59N 44°09' E 028°39'0 0.0
2018-Jan-01 21:29N 44°09' E 028°39'0 0.0
2018-Jan-01 20:59N 44°09' E 028°39'0 0.0
2018-Jan-01 20:29N 44°09' E 028°39'0 0.0
2018-Jan-01 19:59N 44°09' E 028°39'0 0.0
2018-Jan-01 19:29N 44°09' E 028°39'0 0.0
2018-Jan-01 18:59N 44°09' E 028°39'0 0.0
2018-Jan-01 18:29N 44°09' E 028°39'0 0.0
2018-Jan-01 17:59N 44°09' E 028°39'0 0.0
2018-Jan-01 17:29N 44°09' E 028°39'0 0.0
2018-Jan-01 14:59N 44°09' E 028°39'0 0.0
2018-Jan-01 14:29N 44°09' E 028°39'0 0.0
2018-Jan-01 13:59N 44°09' E 028°39'0 0.0
2018-Jan-01 13:26N 44°09' E 028°39'0 0.0
2018-Jan-01 12:59N 44°09' E 028°39'0 0.0
2018-Jan-01 11:59N 44°09' E 028°39'0 0.0
2018-Jan-01 11:29N 44°09' E 028°39'0 0.0
2018-Jan-01 10:56N 44°09' E 028°39'0 0.0
2018-Jan-01 10:29N 44°09' E 028°39'0 0.0
2018-Jan-01 09:59N 44°09' E 028°39'0 0.0
2018-Jan-01 09:29N 44°09' E 028°39'0 0.0
2018-Jan-01 08:29N 44°09' E 028°39'0 0.0
2018-Jan-01 07:59N 44°09' E 028°39'0 0.0
2018-Jan-01 07:23N 44°09' E 028°39'0 0.0
2018-Jan-01 06:59N 44°09' E 028°39'0 0.0
2018-Jan-01 05:59N 44°09' E 028°39'0 0.0
2018-Jan-01 05:29N 44°09' E 028°39'0 0.0
2018-Jan-01 04:59N 44°09' E 028°39'0 0.0
2018-Jan-01 03:59N 44°09' E 028°39'0 0.0
2018-Jan-01 03:29N 44°09' E 028°39'0 0.0
2018-Jan-01 02:56N 44°09' E 028°39'0 0.0
2018-Jan-01 02:28N 44°09' E 028°39'0 0.0
2018-Jan-01 01:58N 44°09' E 028°39'0 0.0
2018-Jan-01 01:28N 44°09' E 028°39'0 0.0
2018-Jan-01 00:25N 44°09' E 028°39'0 0.0
2017-Dec-31 20:55N 44°09' E 028°39'0 0.0
2017-Dec-31 20:28N 44°09' E 028°39'0 0.0
2017-Dec-31 19:58N 44°09' E 028°39'0 0.0
2017-Dec-31 19:28N 44°09' E 028°39'0 0.0
2017-Dec-31 18:58N 44°09' E 028°39'0 0.0
2017-Dec-31 18:28N 44°09' E 028°39'0 0.0
2017-Dec-31 17:58N 44°09' E 028°39'0 0.0
2017-Dec-31 17:28N 44°09' E 028°39'0 0.0
2017-Dec-31 16:55N 44°09' E 028°39'0 0.0
2017-Dec-31 16:28N 44°09' E 028°39'0 0.0
2017-Dec-31 15:58N 44°09' E 028°39'0 0.0
2017-Dec-31 15:28N 44°09' E 028°39'0 0.0
2017-Dec-31 14:58N 44°09' E 028°39'0 0.0
2017-Dec-31 14:28N 44°09' E 028°39'0 0.0
2017-Dec-31 13:58N 44°09' E 028°39'0 0.0
2017-Dec-31 13:28N 44°09' E 028°39'0 0.0
2017-Dec-31 12:58N 44°09' E 028°39'0 0.0
2017-Dec-31 12:28N 44°09' E 028°39'0 0.0
2017-Dec-31 11:58N 44°09' E 028°39'  

Dump ship's entire track history